Time;durP1;ratioP1;P1;durP2;ratioP2;P2;SDS_P1;SDS_P2;PMS_P1;PMS_P2;Temp;Humidity;BMP_temperature;BMP_pressure;BME280_temperature;BME280_humidity;BME280_pressure;Samples;Min_cycle;Max_cycle;Signal;HPM_P1;HPM_P2
2021/01/17 00:01:41;;;;;;;20.23;12.17;;;;;;;;;;5099267;28;20727;-86
2021/01/17 00:04:06;;;;;;;31.97;16.20;;;;;;;;;;5099158;28;20612;-87
2021/01/17 00:06:32;;;;;;;25.63;13.37;;;;;;;;;;5099114;28;20203;-87
2021/01/17 00:08:57;;;;;;;25.77;13.53;;;;;;;;;;5097700;28;20185;-87
2021/01/17 00:11:22;;;;;;;27.37;15.13;;;;;;;;;;5098740;28;20185;-87
2021/01/17 00:13:48;;;;;;;29.63;13.57;;;;;;;;;;5098131;28;20185;-86
2021/01/17 00:16:13;;;;;;;28.97;14.73;;;;;;;;;;5099001;28;20277;-87
2021/01/17 00:18:38;;;;;;;35.07;16.07;;;;;;;;;;5099111;28;20184;-88
2021/01/17 00:21:04;;;;;;;31.43;14.97;;;;;;;;;;5095051;28;20202;-87
2021/01/17 00:23:29;;;;;;;30.03;15.60;;;;;;;;;;5095845;28;20178;-87
2021/01/17 00:25:54;;;;;;;33.63;16.03;;;;;;;;;;5094597;28;20551;-87
2021/01/17 00:28:20;;;;;;;31.87;15.17;;;;;;;;;;5094656;28;20635;-87
2021/01/17 00:30:45;;;;;;;24.37;13.40;;;;;;;;;;5094325;28;20182;-87
2021/01/17 00:33:10;;;;;;;28.17;14.60;;;;;;;;;;5094428;28;20212;-87
2021/01/17 00:35:36;;;;;;;28.13;14.77;;;;;;;;;;5094401;28;20206;-87
2021/01/17 00:38:02;;;;;;;28.33;14.43;;;;;;;;;;5094233;28;20178;-87
2021/01/17 00:40:27;;;;;;;31.10;16.13;;;;;;;;;;5094517;28;20273;-87
2021/01/17 00:42:54;;;;;;;27.53;14.27;;;;;;;;;;5095710;28;20206;-87
2021/01/17 00:45:20;;;;;;;32.97;17.20;;;;;;;;;;5094393;28;20171;-87
2021/01/17 00:47:47;;;;;;;21.20;11.20;;;;;;;;;;5095607;28;20259;-88
2021/01/17 00:50:13;;;;;;;24.93;12.30;;;;;;;;;;5095217;28;20666;-87
2021/01/17 00:52:39;;;;;;;34.93;17.67;;;;;;;;;;5095262;28;20217;-87
2021/01/17 00:55:04;;;;;;;31.67;16.50;;;;;;;;;;5094159;28;20264;-87
2021/01/17 00:57:30;;;;;;;28.77;15.00;;;;;;;;;;5069441;23;20230;-88
2021/01/17 00:59:55;;;;;;;28.33;14.50;;;;;;;;;;4995419;28;20201;-88
2021/01/17 01:02:20;;;;;;;27.33;15.27;;;;;;;;;;4995306;28;20180;-88
2021/01/17 01:04:46;;;;;;;36.10;17.03;;;;;;;;;;4994410;28;20241;-88
2021/01/17 01:07:12;;;;;;;31.53;16.53;;;;;;;;;;4996034;28;20205;-88
2021/01/17 01:09:38;;;;;;;27.33;15.97;;;;;;;;;;4994889;28;20576;-88
2021/01/17 01:12:03;;;;;;;30.67;13.80;;;;;;;;;;4994486;28;20308;-89
2021/01/17 01:14:28;;;;;;;25.13;13.30;;;;;;;;;;4994319;28;20182;-88
2021/01/17 01:16:54;;;;;;;23.67;11.93;;;;;;;;;;4996322;28;20529;-88
2021/01/17 01:19:20;;;;;;;26.23;11.37;;;;;;;;;;4996735;28;20503;-88
2021/01/17 01:21:45;;;;;;;31.87;15.40;;;;;;;;;;4994929;28;20248;-87
2021/01/17 01:24:11;;;;;;;32.97;15.77;;;;;;;;;;4995887;28;20166;-88
2021/01/17 01:26:37;;;;;;;32.77;15.80;;;;;;;;;;4996340;28;20205;-87
2021/01/17 01:29:03;;;;;;;29.00;13.60;;;;;;;;;;4996571;28;20513;-88
2021/01/17 01:31:28;;;;;;;28.40;13.30;;;;;;;;;;4994898;28;20177;-87
2021/01/17 01:33:55;;;;;;;26.50;15.10;;;;;;;;;;4995719;28;20210;-88
2021/01/17 01:36:22;;;;;;;25.50;13.53;;;;;;;;;;4995606;28;20218;-88
2021/01/17 01:38:47;;;;;;;32.37;16.47;;;;;;;;;;4995886;28;20240;-88
2021/01/17 01:41:13;;;;;;;35.10;17.70;;;;;;;;;;4995870;28;20166;-88
2021/01/17 01:43:38;;;;;;;26.83;13.27;;;;;;;;;;4995786;28;20625;-88
2021/01/17 01:46:04;;;;;;;31.63;15.90;;;;;;;;;;4994391;28;20214;-88
2021/01/17 01:48:30;;;;;;;33.13;16.20;;;;;;;;;;4995920;28;20260;-87
2021/01/17 01:50:56;;;;;;;31.90;15.80;;;;;;;;;;4995913;28;20233;-87
2021/01/17 01:53:21;;;;;;;35.57;17.67;;;;;;;;;;4995814;28;20605;-88
2021/01/17 01:55:47;;;;;;;29.63;15.27;;;;;;;;;;4995219;28;20265;-88
2021/01/17 01:58:13;;;;;;;31.63;16.50;;;;;;;;;;4995425;28;20230;-87
2021/01/17 02:00:38;;;;;;;36.40;17.97;;;;;;;;;;4995162;28;20185;-88
2021/01/17 02:03:04;;;;;;;35.10;16.43;;;;;;;;;;4995432;28;20182;-88
2021/01/17 02:05:29;;;;;;;36.70;17.87;;;;;;;;;;4993958;28;20186;-88
2021/01/17 02:08:15;;;;;;;32.20;16.17;;;;;;;;;;4995534;28;20194;-88
2021/01/17 02:10:41;;;;;;;35.43;17.37;;;;;;;;;;4995609;28;20168;-88
2021/01/17 02:13:27;;;;;;;31.40;15.57;;;;;;;;;;4994928;28;20169;-88
2021/01/17 02:15:53;;;;;;;41.43;18.07;;;;;;;;;;4994679;28;20633;-88
2021/01/17 02:18:21;;;;;;;35.03;17.00;;;;;;;;;;4995173;28;20209;-88
2021/01/17 02:20:46;;;;;;;40.80;18.90;;;;;;;;;;4993887;28;20180;-88
2021/01/17 02:23:22;;;;;;;39.73;19.20;;;;;;;;;;4993776;28;20185;-87
2021/01/17 02:25:47;;;;;;;38.47;19.30;;;;;;;;;;4993948;28;20267;-88
2021/01/17 02:28:17;;;;;;;35.30;18.37;;;;;;;;;;4994689;28;20181;-88
2021/01/17 02:30:50;;;;;;;35.70;17.10;;;;;;;;;;4995487;28;20174;-87
2021/01/17 02:33:18;;;;;;;41.10;19.80;;;;;;;;;;4995507;28;20178;-88
2021/01/17 02:35:45;;;;;;;39.40;18.57;;;;;;;;;;4994964;28;20185;-88
2021/01/17 02:38:29;;;;;;;41.67;19.37;;;;;;;;;;4995331;28;20533;-87
2021/01/17 02:41:00;;;;;;;38.03;18.23;;;;;;;;;;4994488;28;20264;-88
2021/01/17 02:43:26;;;;;;;41.17;18.73;;;;;;;;;;4994596;28;20262;-87
2021/01/17 02:45:51;;;;;;;38.20;19.53;;;;;;;;;;4994891;28;20288;-87
2021/01/17 02:48:16;;;;;;;21.60;11.27;;;;;;;;;;4993379;28;20221;-88
2021/01/17 02:50:42;;;;;;;36.57;17.93;;;;;;;;;;4994117;28;20178;-87
2021/01/17 02:53:25;;;;;;;44.23;18.77;;;;;;;;;;4994899;28;20182;-87
2021/01/17 02:55:52;;;;;;;39.77;17.80;;;;;;;;;;4994785;28;20217;-87
2021/01/17 02:58:19;;;;;;;37.37;15.40;;;;;;;;;;4994178;28;20233;-87
2021/01/17 03:00:46;;;;;;;34.50;17.43;;;;;;;;;;4994902;28;20177;-87
2021/01/17 03:03:13;;;;;;;42.70;17.60;;;;;;;;;;4993377;28;20265;-87
2021/01/17 03:05:39;;;;;;;34.30;16.30;;;;;;;;;;4994465;28;20198;-87
2021/01/17 03:08:06;;;;;;;37.70;16.40;;;;;;;;;;4994277;28;20188;-87
2021/01/17 03:10:31;;;;;;;38.17;17.87;;;;;;;;;;4995305;28;20174;-87
2021/01/17 03:12:59;;;;;;;43.77;20.17;;;;;;;;;;4994201;28;20177;-86
2021/01/17 03:15:25;;;;;;;38.57;16.97;;;;;;;;;;4994995;28;20186;-87
2021/01/17 03:17:50;;;;;;;42.87;19.90;;;;;;;;;;4994155;28;20308;-87
2021/01/17 03:20:16;;;;;;;40.97;19.57;;;;;;;;;;4994409;28;20174;-87
2021/01/17 03:22:41;;;;;;;39.03;17.87;;;;;;;;;;4994101;28;20173;-86
2021/01/17 03:25:06;;;;;;;45.37;19.27;;;;;;;;;;4994633;28;20209;-87
2021/01/17 03:27:32;;;;;;;39.97;17.77;;;;;;;;;;4993030;28;20228;-87
2021/01/17 03:29:57;;;;;;;35.47;15.87;;;;;;;;;;4994046;28;20170;-86
2021/01/17 03:32:22;;;;;;;45.63;20.20;;;;;;;;;;4994263;28;20169;-86
2021/01/17 03:34:48;;;;;;;47.53;20.93;;;;;;;;;;4993915;28;20181;-86
2021/01/17 03:37:15;;;;;;;46.90;19.17;;;;;;;;;;4994511;28;20178;-86
2021/01/17 03:39:40;;;;;;;44.57;20.90;;;;;;;;;;4994141;28;20173;-86
2021/01/17 03:42:05;;;;;;;50.87;20.70;;;;;;;;;;4994040;28;20170;-87
2021/01/17 03:44:30;;;;;;;40.53;18.53;;;;;;;;;;4994703;28;20170;-87
2021/01/17 03:46:56;;;;;;;24.97;13.40;;;;;;;;;;4994076;28;20197;-87
2021/01/17 03:49:21;;;;;;;45.43;19.07;;;;;;;;;;4994123;28;20170;-86
2021/01/17 03:51:46;;;;;;;50.60;22.43;;;;;;;;;;4993680;28;20166;-86
2021/01/17 03:54:12;;;;;;;45.33;20.03;;;;;;;;;;4993659;28;20178;-86
2021/01/17 03:56:37;;;;;;;41.83;16.93;;;;;;;;;;4997751;28;20181;-86
2021/01/17 03:59:02;;;;;;;47.63;19.40;;;;;;;;;;4997971;28;20288;-86
2021/01/17 04:01:28;;;;;;;47.93;21.87;;;;;;;;;;4997755;28;20186;-86
2021/01/17 04:03:56;;;;;;;48.87;21.97;;;;;;;;;;4998041;28;20560;-86
2021/01/17 04:06:21;;;;;;;40.87;20.10;;;;;;;;;;4997322;28;20227;-86
2021/01/17 04:08:46;;;;;;;40.37;18.60;;;;;;;;;;4997323;28;20550;-86
2021/01/17 04:11:11;;;;;;;48.23;22.03;;;;;;;;;;4997540;28;20178;-86
2021/01/17 04:13:37;;;;;;;52.57;20.50;;;;;;;;;;4997801;28;20178;-86
2021/01/17 04:16:02;;;;;;;45.13;20.00;;;;;;;;;;4997511;28;20261;-86
2021/01/17 04:18:28;;;;;;;35.93;13.27;;;;;;;;;;4996047;28;20232;-87
2021/01/17 04:20:53;;;;;;;40.43;17.23;;;;;;;;;;4997409;28;20256;-86
2021/01/17 04:23:19;;;;;;;36.60;17.37;;;;;;;;;;4997541;28;20235;-86
2021/01/17 04:25:44;;;;;;;32.67;16.07;;;;;;;;;;4996885;28;20193;-86
2021/01/17 04:28:10;;;;;;;30.97;14.87;;;;;;;;;;4996965;28;20201;-86
2021/01/17 04:30:36;;;;;;;39.07;16.17;;;;;;;;;;4997189;28;20178;-86
2021/01/17 04:33:01;;;;;;;37.77;16.43;;;;;;;;;;4997905;28;20257;-86
2021/01/17 04:35:27;;;;;;;30.90;14.60;;;;;;;;;;4997574;28;20624;-86
2021/01/17 04:37:56;;;;;;;39.87;16.37;;;;;;;;;;4997098;28;20166;-86
2021/01/17 04:40:22;;;;;;;34.73;15.53;;;;;;;;;;4997343;28;20178;-86
2021/01/17 04:42:48;;;;;;;36.50;15.30;;;;;;;;;;4997361;28;20170;-86
2021/01/17 04:45:17;;;;;;;36.00;17.13;;;;;;;;;;4996954;28;20184;-86
2021/01/17 04:47:44;;;;;;;36.50;16.93;;;;;;;;;;4996739;28;20210;-86
2021/01/17 04:50:10;;;;;;;34.53;15.83;;;;;;;;;;4996768;28;20173;-86
2021/01/17 04:52:44;;;;;;;38.07;16.83;;;;;;;;;;4996704;28;20174;-86
2021/01/17 04:55:10;;;;;;;37.23;17.93;;;;;;;;;;4997007;28;20177;-87
2021/01/17 04:57:53;;;;;;;48.20;20.03;;;;;;;;;;4996321;28;20236;-87
2021/01/17 05:00:25;;;;;;;29.00;14.93;;;;;;;;;;4996576;28;20173;-87
2021/01/17 05:03:09;;;;;;;38.13;18.63;;;;;;;;;;4996596;28;20510;-87
2021/01/17 05:06:00;;;;;;;39.63;17.63;;;;;;;;;;4996394;28;20664;-87
2021/01/17 05:08:25;;;;;;;37.57;17.20;;;;;;;;;;4980652;28;20637;-87
2021/01/17 05:10:58;;;;;;;34.70;17.17;;;;;;;;;;4996476;28;20252;-87
2021/01/17 05:13:24;;;;;;;37.00;17.93;;;;;;;;;;4996839;28;20166;-87
2021/01/17 05:15:53;;;;;;;39.53;17.60;;;;;;;;;;4995402;28;20497;-87
2021/01/17 05:18:18;;;;;;;29.67;14.97;;;;;;;;;;4995008;28;20231;-87
2021/01/17 05:20:44;;;;;;;34.07;16.77;;;;;;;;;;4996912;28;20261;-87
2021/01/17 05:23:10;;;;;;;34.20;17.10;;;;;;;;;;4996448;28;20169;-87
2021/01/17 05:25:35;;;;;;;37.97;19.07;;;;;;;;;;4996335;28;20528;-87
2021/01/17 05:28:01;;;;;;;39.13;18.47;;;;;;;;;;4994990;28;20173;-87
2021/01/17 05:30:26;;;;;;;36.30;16.90;;;;;;;;;;4996299;28;20588;-87
2021/01/17 05:32:52;;;;;;;37.07;17.43;;;;;;;;;;4996799;28;20509;-87
2021/01/17 05:35:18;;;;;;;37.37;17.93;;;;;;;;;;4995699;28;20652;-87
2021/01/17 05:37:47;;;;;;;42.37;17.90;;;;;;;;;;4995629;28;20166;-87
2021/01/17 05:40:13;;;;;;;35.97;16.47;;;;;;;;;;4995885;28;20604;-87
2021/01/17 05:42:39;;;;;;;36.70;17.40;;;;;;;;;;4996130;28;20253;-87
2021/01/17 05:45:14;;;;;;;38.53;16.77;;;;;;;;;;4995524;28;20173;-87
2021/01/17 05:47:40;;;;;;;34.30;17.17;;;;;;;;;;4995743;28;20255;-87
2021/01/17 05:50:07;;;;;;;38.90;18.53;;;;;;;;;;4996190;28;20178;-87
2021/01/17 05:52:32;;;;;;;40.40;18.53;;;;;;;;;;4994950;28;20178;-87
2021/01/17 05:54:58;;;;;;;34.27;17.67;;;;;;;;;;4995676;28;20613;-87
2021/01/17 05:57:25;;;;;;;34.40;16.67;;;;;;;;;;4994883;28;20253;-87
2021/01/17 05:59:51;;;;;;;35.00;17.93;;;;;;;;;;4995547;28;20624;-87
2021/01/17 06:02:17;;;;;;;46.57;19.57;;;;;;;;;;4995197;28;20170;-87
2021/01/17 06:04:44;;;;;;;40.90;19.47;;;;;;;;;;4995737;28;20173;-87
2021/01/17 06:07:10;;;;;;;30.00;15.70;;;;;;;;;;4994993;28;20197;-87
2021/01/17 06:09:38;;;;;;;39.33;16.87;;;;;;;;;;4994023;28;20192;-87
2021/01/17 06:12:04;;;;;;;37.40;16.50;;;;;;;;;;4995528;28;20196;-87
2021/01/17 06:14:30;;;;;;;33.33;15.30;;;;;;;;;;4995180;28;20170;-86
2021/01/17 06:17:00;;;;;;;34.53;18.33;;;;;;;;;;4994576;28;20174;-86
2021/01/17 06:19:44;;;;;;;34.23;15.80;;;;;;;;;;4994676;28;20625;-86
2021/01/17 06:22:09;;;;;;;33.13;14.93;;;;;;;;;;4994933;28;20166;-86
2021/01/17 06:24:34;;;;;;;38.40;17.37;;;;;;;;;;4995638;28;20181;-86
2021/01/17 06:27:01;;;;;;;36.33;17.00;;;;;;;;;;4995007;28;20284;-85
2021/01/17 06:29:36;;;;;;;37.20;17.17;;;;;;;;;;4994617;28;20633;-86
2021/01/17 06:32:12;;;;;;;39.20;17.77;;;;;;;;;;4994241;28;20174;-86
2021/01/17 06:34:42;;;;;;;32.67;17.70;;;;;;;;;;4994647;28;20629;-85
2021/01/17 06:37:08;;;;;;;34.53;17.40;;;;;;;;;;4994933;28;20205;-85
2021/01/17 06:39:40;;;;;;;39.30;18.73;;;;;;;;;;4994506;28;20182;-86
2021/01/17 06:42:08;;;;;;;40.50;17.97;;;;;;;;;;4995200;28;20174;-85
2021/01/17 06:44:34;;;;;;;34.00;15.93;;;;;;;;;;4994538;28;20261;-86
2021/01/17 06:46:59;;;;;;;38.53;18.07;;;;;;;;;;5008248;28;20216;-86
2021/01/17 06:49:35;;;;;;;33.63;16.80;;;;;;;;;;5019380;28;20154;-87
2021/01/17 06:52:04;;;;;;;45.10;20.90;;;;;;;;;;5016499;28;20162;-87
2021/01/17 06:54:49;;;;;;;38.33;18.37;;;;;;;;;;5000058;28;20174;-86
2021/01/17 06:57:15;;;;;;;33.40;17.20;;;;;;;;;;4994683;28;20278;-87
2021/01/17 06:59:47;;;;;;;36.13;16.53;;;;;;;;;;4994635;28;20228;-86
2021/01/17 07:02:12;;;;;;;39.50;19.10;;;;;;;;;;4993276;28;20268;-86
2021/01/17 07:04:41;;;;;;;43.27;20.67;;;;;;;;;;4994989;28;20249;-87
2021/01/17 07:07:22;;;;;;;39.07;18.07;;;;;;;;;;4994333;28;20193;-85
2021/01/17 07:09:49;;;;;;;38.37;18.93;;;;;;;;;;4995124;28;20617;-86
2021/01/17 07:12:17;;;;;;;42.27;20.73;;;;;;;;;;4994208;28;20176;-87
2021/01/17 07:14:43;;;;;;;53.57;25.03;;;;;;;;;;4994749;28;20253;-87
2021/01/17 07:17:08;;;;;;;34.73;17.30;;;;;;;;;;4993706;28;20174;-87
2021/01/17 07:19:34;;;;;;;36.60;16.83;;;;;;;;;;4994483;28;20236;-87
2021/01/17 07:22:06;;;;;;;49.23;21.17;;;;;;;;;;4994083;28;20166;-86
2021/01/17 07:24:32;;;;;;;39.50;18.47;;;;;;;;;;4994225;28;20253;-87
2021/01/17 07:26:57;;;;;;;61.50;26.93;;;;;;;;;;4994810;28;20204;-86
2021/01/17 07:29:25;;;;;;;73.67;30.50;;;;;;;;;;4996571;28;20169;-87
2021/01/17 07:31:53;;;;;;;73.70;29.57;;;;;;;;;;4998028;28;20234;-87
2021/01/17 07:34:19;;;;;;;59.53;25.93;;;;;;;;;;4998535;28;20173;-87
2021/01/17 07:36:48;;;;;;;112.50;45.03;;;;;;;;;;4998547;28;20178;-87
2021/01/17 07:39:18;;;;;;;47.50;21.77;;;;;;;;;;4996986;28;20177;-87
2021/01/17 07:41:46;;;;;;;67.27;28.07;;;;;;;;;;4998661;28;20170;-86
2021/01/17 07:44:15;;;;;;;48.83;20.50;;;;;;;;;;4997946;28;20174;-86
2021/01/17 07:46:41;;;;;;;44.80;17.73;;;;;;;;;;4997713;28;20209;-87
2021/01/17 07:49:07;;;;;;;49.60;21.17;;;;;;;;;;4997838;28;20700;-86
2021/01/17 07:51:33;;;;;;;29.50;13.53;;;;;;;;;;4997705;28;20201;-86
2021/01/17 07:54:19;;;;;;;55.47;20.67;;;;;;;;;;4998248;28;20216;-86
2021/01/17 07:56:46;;;;;;;49.80;22.40;;;;;;;;;;4997937;28;20529;-86
2021/01/17 07:59:11;;;;;;;36.33;17.10;;;;;;;;;;4997516;28;20202;-86
2021/01/17 08:01:38;;;;;;;33.87;16.60;;;;;;;;;;4997941;28;20512;-86
2021/01/17 08:04:04;;;;;;;31.90;17.07;;;;;;;;;;4996455;28;20638;-86
2021/01/17 08:06:35;;;;;;;40.50;17.93;;;;;;;;;;4997321;28;20202;-87
2021/01/17 08:09:10;;;;;;;94.17;37.13;;;;;;;;;;4998159;28;20288;-86
2021/01/17 08:11:46;;;;;;;48.47;22.47;;;;;;;;;;4998063;28;20209;-87
2021/01/17 08:14:30;;;;;;;80.47;36.43;;;;;;;;;;4997361;28;20660;-86
2021/01/17 08:17:04;;;;;;;85.00;41.43;;;;;;;;;;4997892;28;20165;-86
2021/01/17 08:20:05;;;;;;;99.73;43.50;;;;;;;;;;4997668;28;20170;-85
2021/01/17 08:22:30;;;;;;;89.03;34.47;;;;;;;;;;4956702;29;20588;-87
2021/01/17 08:24:59;;;;;;;64.80;27.43;;;;;;;;;;4988547;28;20277;-86
2021/01/17 08:27:27;;;;;;;67.93;31.43;;;;;;;;;;4996946;28;20209;-85
2021/01/17 08:30:08;;;;;;;44.60;19.47;;;;;;;;;;4997153;28;20171;-86
2021/01/17 08:32:49;;;;;;;32.13;13.90;;;;;;;;;;4994813;28;20610;-87
2021/01/17 08:35:20;;;;;;;49.37;25.73;;;;;;;;;;5000659;28;20173;-86
2021/01/17 08:38:04;;;;;;;62.47;25.90;;;;;;;;;;5015700;28;20189;-87
2021/01/17 08:40:29;;;;;;;100.93;43.13;;;;;;;;;;5013591;28;20188;-86
2021/01/17 08:43:17;;;;;;;59.30;27.73;;;;;;;;;;5015579;28;20166;-87
2021/01/17 08:45:47;;;;;;;72.87;31.53;;;;;;;;;;5013855;28;20206;-88
2021/01/17 08:48:15;;;;;;;89.37;34.70;;;;;;;;;;5013480;28;20682;-88
2021/01/17 08:50:41;;;;;;;51.30;23.50;;;;;;;;;;5010564;28;20181;-88
2021/01/17 08:53:09;;;;;;;63.57;28.87;;;;;;;;;;4999194;28;20629;-88
2021/01/17 08:55:43;;;;;;;122.47;50.40;;;;;;;;;;4996462;28;20298;-89
2021/01/17 08:58:10;;;;;;;492.37;182.37;;;;;;;;;;5003957;28;20244;-88
2021/01/17 09:01:08;;;;;;;199.07;74.90;;;;;;;;;;4995503;28;20200;-88
2021/01/17 09:03:33;;;;;;;45.17;21.60;;;;;;;;;;4963150;28;20193;-88
2021/01/17 09:06:03;;;;;;;48.90;22.60;;;;;;;;;;4996537;28;20240;-89
2021/01/17 09:08:29;;;;;;;55.27;26.03;;;;;;;;;;5011158;28;20181;-87
2021/01/17 09:10:55;;;;;;;43.13;20.80;;;;;;;;;;5014651;28;20193;-87
2021/01/17 09:13:22;;;;;;;34.60;18.27;;;;;;;;;;5014808;28;20222;-88
2021/01/17 09:15:58;;;;;;;45.20;22.10;;;;;;;;;;5014571;28;20178;-88
2021/01/17 09:18:24;;;;;;;51.13;24.33;;;;;;;;;;4996367;28;20174;-88
2021/01/17 09:20:53;;;;;;;68.90;28.90;;;;;;;;;;4996191;28;20170;-88
2021/01/17 09:23:18;;;;;;;49.83;23.33;;;;;;;;;;4995531;28;20186;-88
2021/01/17 09:25:45;;;;;;;44.50;21.13;;;;;;;;;;4996133;28;20185;-86
2021/01/17 09:28:11;;;;;;;42.10;22.27;;;;;;;;;;5002740;28;20177;-86
2021/01/17 09:30:36;;;;;;;48.63;21.93;;;;;;;;;;5012875;28;20180;-88
2021/01/17 09:33:02;;;;;;;45.93;22.97;;;;;;;;;;5011569;28;20177;-86
2021/01/17 09:35:27;;;;;;;45.47;22.50;;;;;;;;;;5013513;28;20177;-86
2021/01/17 09:37:58;;;;;;;45.03;22.30;;;;;;;;;;5012614;28;20566;-85
2021/01/17 09:40:23;;;;;;;40.67;19.50;;;;;;;;;;5014044;28;20168;-85
2021/01/17 09:42:50;;;;;;;36.77;18.67;;;;;;;;;;5014234;28;20193;-86
2021/01/17 09:45:15;;;;;;;37.57;19.83;;;;;;;;;;5012816;28;20189;-85
2021/01/17 09:47:40;;;;;;;36.33;18.03;;;;;;;;;;5005499;28;20224;-86
2021/01/17 09:50:10;;;;;;;42.33;21.77;;;;;;;;;;5003952;28;20197;-86
2021/01/17 09:52:39;;;;;;;37.23;20.20;;;;;;;;;;5025454;28;20176;-85
2021/01/17 09:55:11;;;;;;;60.37;29.97;;;;;;;;;;5014892;28;20624;-87
2021/01/17 09:57:37;;;;;;;62.73;26.53;;;;;;;;;;5013683;28;20228;-88
2021/01/17 10:00:06;;;;;;;51.10;24.23;;;;;;;;;;5013982;28;20173;-87
2021/01/17 10:02:33;;;;;;;40.33;20.13;;;;;;;;;;5013819;28;20632;-88
2021/01/17 10:04:58;;;;;;;38.20;20.07;;;;;;;;;;4994032;28;20181;-88
2021/01/17 10:07:24;;;;;;;40.33;18.70;;;;;;;;;;4993038;28;20353;-88
2021/01/17 10:09:50;;;;;;;50.70;22.43;;;;;;;;;;5009213;28;20169;-87
2021/01/17 10:12:21;;;;;;;410.43;115.27;;;;;;;;;;5002994;28;20698;-88
2021/01/17 10:14:47;;;;;;;47.03;22.07;;;;;;;;;;5011935;28;20181;-88
2021/01/17 10:17:12;;;;;;;39.77;20.07;;;;;;;;;;5013529;28;20181;-89
2021/01/17 10:19:39;;;;;;;52.13;26.60;;;;;;;;;;5012690;28;20174;-88
2021/01/17 10:22:08;;;;;;;49.07;23.87;;;;;;;;;;4992981;28;20521;-88
2021/01/17 10:24:33;;;;;;;44.03;24.23;;;;;;;;;;5011900;28;20212;-89
2021/01/17 10:27:00;;;;;;;41.03;19.60;;;;;;;;;;5012139;28;20238;-89
2021/01/17 10:29:29;;;;;;;58.77;26.87;;;;;;;;;;5013529;28;20178;-88
2021/01/17 10:32:03;;;;;;;48.47;25.70;;;;;;;;;;5013139;28;20182;-87
2021/01/17 10:34:33;;;;;;;51.33;23.67;;;;;;;;;;5013360;28;20211;-88
2021/01/17 10:37:02;;;;;;;58.50;26.40;;;;;;;;;;5013917;28;20196;-87
2021/01/17 10:39:29;;;;;;;68.47;31.40;;;;;;;;;;5012265;28;20231;-87
2021/01/17 10:42:03;;;;;;;69.33;33.03;;;;;;;;;;5013438;28;20250;-88
2021/01/17 10:44:29;;;;;;;62.33;30.67;;;;;;;;;;5012098;28;20177;-89
2021/01/17 10:47:02;;;;;;;58.97;28.00;;;;;;;;;;5012878;28;20240;-86
2021/01/17 10:49:30;;;;;;;42.17;23.57;;;;;;;;;;5030542;28;20581;-88
2021/01/17 10:51:57;;;;;;;50.83;24.23;;;;;;;;;;5018241;28;20220;-87
2021/01/17 10:54:32;;;;;;;51.77;26.60;;;;;;;;;;5025141;28;20178;-87
2021/01/17 10:57:02;;;;;;;52.73;24.90;;;;;;;;;;5011828;28;20335;-87
2021/01/17 10:59:28;;;;;;;50.20;24.50;;;;;;;;;;5013711;28;20177;-87
2021/01/17 11:02:03;;;;;;;65.80;27.53;;;;;;;;;;5013215;28;20639;-87
2021/01/17 11:04:37;;;;;;;51.93;23.87;;;;;;;;;;5011878;28;20779;-86
2021/01/17 11:07:02;;;;;;;56.83;25.67;;;;;;;;;;5011850;28;20544;-86
2021/01/17 11:09:29;;;;;;;69.80;28.90;;;;;;;;;;5013611;28;20184;-86
2021/01/17 11:11:55;;;;;;;58.37;26.30;;;;;;;;;;5005289;28;20187;-88
2021/01/17 11:14:30;;;;;;;44.03;21.83;;;;;;;;;;5013403;28;20184;-88
2021/01/17 11:16:57;;;;;;;66.57;27.23;;;;;;;;;;5012716;28;20204;-87
2021/01/17 11:19:34;;;;;;;59.37;25.77;;;;;;;;;;5011850;28;20532;-87
2021/01/17 11:21:59;;;;;;;58.70;26.03;;;;;;;;;;5012095;28;20173;-88
2021/01/17 11:24:31;;;;;;;67.83;30.27;;;;;;;;;;5012181;28;20195;-88
2021/01/17 11:27:05;;;;;;;59.80;27.20;;;;;;;;;;5012432;28;20208;-87
2021/01/17 11:29:30;;;;;;;49.30;22.50;;;;;;;;;;5012902;28;20203;-86
2021/01/17 11:31:56;;;;;;;47.70;23.83;;;;;;;;;;5010026;28;20254;-87
2021/01/17 11:34:21;;;;;;;51.23;25.13;;;;;;;;;;5012811;28;20176;-86
2021/01/17 11:36:55;;;;;;;52.83;25.17;;;;;;;;;;5013156;28;20208;-87
2021/01/17 11:39:20;;;;;;;53.63;23.73;;;;;;;;;;5011223;28;20180;-87
2021/01/17 11:41:46;;;;;;;43.80;22.27;;;;;;;;;;5013992;28;20181;-85
2021/01/17 11:44:12;;;;;;;44.40;23.47;;;;;;;;;;5011084;28;20181;-85
2021/01/17 11:46:38;;;;;;;42.30;21.73;;;;;;;;;;5012068;28;20208;-86
2021/01/17 11:49:04;;;;;;;55.63;26.97;;;;;;;;;;5012639;28;20177;-86
2021/01/17 11:51:33;;;;;;;41.00;21.67;;;;;;;;;;5011052;28;20192;-86
2021/01/17 11:54:10;;;;;;;42.30;21.33;;;;;;;;;;5009960;28;20646;-86
2021/01/17 11:56:35;;;;;;;42.30;21.50;;;;;;;;;;4995986;28;20181;-86
2021/01/17 11:59:01;;;;;;;40.53;21.60;;;;;;;;;;5006906;28;20701;-86
2021/01/17 12:01:27;;;;;;;56.67;26.20;;;;;;;;;;5001609;28;20696;-87
2021/01/17 12:04:00;;;;;;;49.23;25.83;;;;;;;;;;5002498;28;20170;-87
2021/01/17 12:06:25;;;;;;;46.57;23.40;;;;;;;;;;5000508;28;20201;-86
2021/01/17 12:08:53;;;;;;;49.10;25.03;;;;;;;;;;5002509;28;20501;-86
2021/01/17 12:11:39;;;;;;;62.07;29.27;;;;;;;;;;5001286;28;20181;-86
2021/01/17 12:14:06;;;;;;;54.27;26.30;;;;;;;;;;5001225;28;20185;-87
2021/01/17 12:16:32;;;;;;;59.73;28.50;;;;;;;;;;5003897;28;20197;-86
2021/01/17 12:18:57;;;;;;;54.40;24.43;;;;;;;;;;5005173;28;20217;-87
2021/01/17 12:21:23;;;;;;;52.57;26.30;;;;;;;;;;5005208;28;20200;-86
2021/01/17 12:23:49;;;;;;;46.17;24.00;;;;;;;;;;5009631;28;20200;-87
2021/01/17 12:26:15;;;;;;;54.97;26.40;;;;;;;;;;5004605;28;20205;-87
2021/01/17 12:28:41;;;;;;;60.57;26.80;;;;;;;;;;4986829;28;20181;-86
2021/01/17 12:31:08;;;;;;;45.60;22.53;;;;;;;;;;5005946;28;20173;-87
2021/01/17 12:33:34;;;;;;;47.90;23.73;;;;;;;;;;5005202;28;20185;-87
2021/01/17 12:36:00;;;;;;;44.90;22.43;;;;;;;;;;5011661;28;20203;-87
2021/01/17 12:38:25;;;;;;;47.33;22.10;;;;;;;;;;5014385;28;20535;-86
2021/01/17 12:40:51;;;;;;;50.83;25.03;;;;;;;;;;5014566;28;20273;-85
2021/01/17 12:43:16;;;;;;;44.80;23.20;;;;;;;;;;5015583;28;20263;-86
2021/01/17 12:45:41;;;;;;;43.13;22.60;;;;;;;;;;5014298;28;20204;-86
2021/01/17 12:48:07;;;;;;;48.63;24.47;;;;;;;;;;5012935;28;20280;-86
2021/01/17 12:50:32;;;;;;;51.53;24.47;;;;;;;;;;5027818;28;20200;-85
2021/01/17 12:52:58;;;;;;;46.03;24.23;;;;;;;;;;5027755;28;20205;-86
2021/01/17 12:55:23;;;;;;;43.27;22.13;;;;;;;;;;5002429;28;20184;-85
2021/01/17 12:57:49;;;;;;;50.10;23.33;;;;;;;;;;5012113;28;20247;-86
2021/01/17 13:00:14;;;;;;;55.23;24.83;;;;;;;;;;5013654;28;20223;-85
2021/01/17 13:02:40;;;;;;;49.20;22.63;;;;;;;;;;4996943;28;20287;-86
2021/01/17 13:05:05;;;;;;;52.50;28.53;;;;;;;;;;4994484;28;20694;-86
2021/01/17 13:07:31;;;;;;;44.70;22.57;;;;;;;;;;4998263;28;20248;-86
2021/01/17 13:09:56;;;;;;;49.27;24.33;;;;;;;;;;4992708;28;20178;-86
2021/01/17 13:12:21;;;;;;;47.50;24.70;;;;;;;;;;4994305;28;20173;-85
2021/01/17 13:14:47;;;;;;;42.80;22.13;;;;;;;;;;4998095;28;20184;-85
2021/01/17 13:17:12;;;;;;;39.00;20.13;;;;;;;;;;5004009;28;20181;-85
2021/01/17 13:19:37;;;;;;;42.43;20.60;;;;;;;;;;5007378;28;20199;-85
2021/01/17 13:22:02;;;;;;;42.00;21.50;;;;;;;;;;5000636;28;20199;-85
2021/01/17 13:24:28;;;;;;;48.37;22.43;;;;;;;;;;5004082;28;20264;-85
2021/01/17 13:26:53;;;;;;;56.83;25.90;;;;;;;;;;5004978;28;20205;-85
2021/01/17 13:29:19;;;;;;;54.20;25.57;;;;;;;;;;4997978;28;20182;-85
2021/01/17 13:31:44;;;;;;;46.47;25.30;;;;;;;;;;4995140;28;20193;-85
2021/01/17 13:34:09;;;;;;;53.30;27.57;;;;;;;;;;5003000;28;20359;-86
2021/01/17 13:36:34;;;;;;;52.33;27.20;;;;;;;;;;5005268;28;20286;-85
2021/01/17 13:39:00;;;;;;;50.80;26.97;;;;;;;;;;5004451;28;20567;-85
2021/01/17 13:41:25;;;;;;;52.40;25.20;;;;;;;;;;5003178;28;20264;-85
2021/01/17 13:43:50;;;;;;;55.63;27.53;;;;;;;;;;5004919;28;20174;-86
2021/01/17 13:46:16;;;;;;;46.60;24.10;;;;;;;;;;5002536;28;20216;-85
2021/01/17 13:48:41;;;;;;;59.40;27.23;;;;;;;;;;5000200;28;20264;-85
2021/01/17 13:51:06;;;;;;;55.43;26.47;;;;;;;;;;5002416;28;20190;-86
2021/01/17 13:53:32;;;;;;;54.53;24.80;;;;;;;;;;4995354;28;20635;-86
2021/01/17 13:55:57;;;;;;;53.67;25.17;;;;;;;;;;4998282;28;20170;-85
2021/01/17 13:58:23;;;;;;;58.40;25.97;;;;;;;;;;5011367;28;20694;-86
2021/01/17 14:00:48;;;;;;;49.83;25.30;;;;;;;;;;5012058;28;20181;-86
2021/01/17 14:03:13;;;;;;;51.00;25.37;;;;;;;;;;5012505;28;20270;-85
2021/01/17 14:05:39;;;;;;;57.00;26.70;;;;;;;;;;5011407;28;20181;-85
2021/01/17 14:08:04;;;;;;;55.30;26.70;;;;;;;;;;5006143;28;20303;-85
2021/01/17 14:10:30;;;;;;;60.30;27.17;;;;;;;;;;5004198;28;20170;-85
2021/01/17 14:12:55;;;;;;;65.07;28.63;;;;;;;;;;5002623;28;20182;-85
2021/01/17 14:15:21;;;;;;;58.13;28.43;;;;;;;;;;5004796;28;20180;-85
2021/01/17 14:17:47;;;;;;;56.90;28.83;;;;;;;;;;5003901;28;20216;-85
2021/01/17 14:20:14;;;;;;;58.83;27.67;;;;;;;;;;5002985;28;20506;-85